• Join FlightAware (Why Join?)
  • Login
  • US Flag 
05:22PM EST


 

Airport Tracker/Info


-or-


 

Live Flight TrackerFlight Track Log ✈ ASQ6151 ✈ 06-May-2013 ✈ KORD - KPIA

Flight Track Log - Related Links

Times and Time Zones

All times are in EDT time to prevent confusion due to time zone crossing. See the ASQ6151 flight status page for this flight to view local times or setup timezone preferences in your user account.

Time Position Orientation Groundspeed Altitude Reporting Facility
EDT Latitude Longitude Course Direction KTS MPH feet Rate Location/Type
10:23PM 42.0333 -87.9667 270° West 207 238 3,500  Level Chicago TRACON
10:24PM 42.0672 -88.0972 289° West 278 320 7,700 2,400 Climbing Chicago Center
10:25PM 41.9667 -88.2719 270° West  Level FlightAware Approximate
10:25PM 42.0372 -88.1933 247° West 282 325 10,300  Level Chicago Center
10:26PM 41.9667 -88.3958 270° West  Level FlightAware Approximate
10:26PM 41.9967 -88.3317 249° West 331 381 11,800  Level Chicago Center
10:27PM 41.9667 -88.5198 270° West  Level FlightAware Approximate
10:27PM 41.9567 -88.4583 247° West 368 423 13,500  Level Chicago Center
10:28PM 41.9667 -88.6438 270° West  Level FlightAware Approximate
10:28PM 41.8989 -88.5747 236° Southwest 380 437 15,000  Level Chicago Center
10:30PM 41.8272 -88.6794 227° Southwest 386 444 16,000 480 Climbing Chicago Center
10:31PM 41.7364 -88.7606 214° Southwest 397 457 16,000  Level Chicago Center
10:32PM 41.6456 -88.8394 213° Southwest 394 453 16,000  Level Chicago Center
10:33PM 41.5364 -88.9364 214° Southwest 397 457 16,000  Level Chicago Center
10:34PM 41.4467 -89.0164 214° Southwest 392 451 16,000  Level Chicago Center
10:35PM 41.3564 -89.0942 213° Southwest 390 449 16,000  Level Chicago Center
10:36PM 41.2656 -89.1731 213° Southwest 392 451 16,000 -480 Level Chicago Center
10:37PM 41.1700 -89.2583 214° Southwest 395 455 15,100 -1,140 Descending Chicago Center
10:38PM 41.0828 -89.3331 213° Southwest 375 432 13,700 -1,620 Descending Chicago Center
10:39PM 41.0006 -89.4153 217° Southwest 371 427 11,900 -1,680 Descending Chicago Center
10:40PM 40.9214 -89.5033 220° Southwest 372 428 10,300 -1,080 Descending Chicago Center
10:41PM 40.8508 -89.5867 222° Southwest 348 400 9,700 -1,320 Descending Chicago Center
10:42PM 40.8017 -89.6642 230° Southwest 284 327 7,600 -2,100 Descending Chicago Center